Strona główna
METAR-TAF:

METAR-TAF

Lotnisko :

Mataram, Indonezja

Szerokość geograficzna: 08-45-29S, Długość geograficzna: 116-16-35E, wysokość: 97 m

Aktualna obserwacja pogody

Raport powstał 16 minut temu, godzina 11:00 UTC
Wiatr 2 kt z kierunków zmiennych
Temperatura 24°C
Wilgotność 89%
Ciśnienie 1012 hPa
Widzialność: 7000 m
Rozproszone chmury na wysokości 1600 ft

METAR: WADL 181100Z VRB02KT 7000 SCT016 24/22 Q1012 NOSIG

czas: 18:16 (11:16 UTC)

Prognoza

Raport powstał 6 godziny i 16 minut temu, godzina 05:00 UTC
Prognoza ważna od 18 godzina 06 UTC do 19 godzina 06 UTC
Wiatr 10 kt od południowy wschód
Widzialność: 9000 m
Przerywane chmury na wysokości 1600 ft

TAF: WADL 180500Z 1806/1906 13010KT 9000 BKN016

Obserwacja i prognoza pogody dla ponad 4000 lotnisk (raport METAR i TAF).

Dostępne stacje oznaczono żółtymi i czerwonymi punktami na mapie.

Najedź kursorem aby zobaczyć nazwę stacji.

Kliknij aby zobaczyć obserwacje i prognozy pogody.

Aby zmienić mapę: kliknij na zielony przycisk z czarnym krzyżykiem, aby powiększyć; na zielony przycisk z myślnikiem, aby pomniejszyć; na zielone strzałki, aby przejść do map sąsiednich.


METAR-TAF: